Time;durP1;ratioP1;P1;durP2;ratioP2;P2;SDS_P1;SDS_P2;PMS_P1;PMS_P2;Temp;Humidity;BMP_temperature;BMP_pressure;BME280_temperature;BME280_humidity;BME280_pressure;Samples;Min_cycle;Max_cycle;Signal;HPM_P1;HPM_P2
2023/03/23 00:02:00;;;;;;;2.85;2.13;;;;;;;12.41;66.37;97724.75;7388132;19;19922;-71
2023/03/23 00:04:29;;;;;;;3.90;1.83;;;;;;;12.39;66.28;97732.06;7386226;19;19933;-71
2023/03/23 00:06:55;;;;;;;2.88;1.40;;;;;;;12.39;66.29;97716.13;7386059;19;20597;-71
2023/03/23 00:09:24;;;;;;;3.28;1.85;;;;;;;12.23;64.07;97728.56;7386768;19;19919;-72
2023/03/23 00:11:51;;;;;;;1.42;1.33;;;;;;;12.36;63.70;97727.94;7386102;19;19942;-71
2023/03/23 00:14:22;;;;;;;2.35;2.10;;;;;;;12.48;62.63;97725.63;7384292;19;19918;-71
2023/03/23 00:16:49;;;;;;;;;;;;;;;12.57;62.88;97719.25;7389396;19;19918;-71
2023/03/23 00:19:18;;;;;;;3.70;1.95;;;;;;;12.62;61.67;97718.69;7386187;19;19946;-71
2023/03/23 00:21:45;;;;;;;1.88;1.65;;;;;;;12.70;61.07;97722.06;7387791;19;19915;-71
2023/03/23 00:24:17;;;;;;;1.60;1.50;;;;;;;12.72;61.16;97722.69;7383752;19;19922;-71
2023/03/23 00:26:46;;;;;;;2.60;2.05;;;;;;;12.81;60.06;97711.97;7387419;19;19915;-72
2023/03/23 00:29:18;;;;;;;2.92;1.55;;;;;;;12.87;59.09;97711.22;7387752;19;19918;-72
2023/03/23 00:31:49;;;;;;;1.65;1.52;;;;;;;12.90;59.18;97710.84;7385253;19;19919;-71
2023/03/23 00:34:25;;;;;;;1.88;1.55;;;;;;;13.01;58.59;97715.69;7385160;19;19918;-71
2023/03/23 00:36:56;;;;;;;2.40;1.50;;;;;;;13.04;58.66;97706.53;7387257;19;19922;-71
2023/03/23 00:39:25;;;;;;;1.90;1.48;;;;;;;13.02;58.73;97704.06;7385257;19;19951;-71
2023/03/23 00:41:53;;;;;;;2.30;1.73;;;;;;;13.05;59.10;97702.84;7387376;19;19940;-72
2023/03/23 00:44:23;;;;;;;2.28;1.48;;;;;;;13.05;59.33;97703.66;7386168;19;19918;-71
2023/03/23 00:46:50;;;;;;;;;;;;;;;13.04;59.43;97699.38;7387734;19;19922;-71
2023/03/23 00:49:19;;;;;;;2.30;1.17;;;;;;;13.00;58.56;97695.44;7385943;19;19918;-71
2023/03/23 00:51:46;;;;;;;3.20;2.22;;;;;;;12.98;60.24;97692.16;7385620;19;20252;-71
2023/03/23 00:54:13;;;;;;;2.00;1.80;;;;;;;12.96;59.69;97689.69;7388380;19;19919;-71
2023/03/23 00:56:40;;;;;;;1.95;1.75;;;;;;;12.89;59.71;97686.13;7388841;19;19926;-71
2023/03/23 00:59:07;;;;;;;2.92;1.52;;;;;;;12.88;60.02;97691.66;7387940;19;19915;-72
2023/03/23 01:01:35;;;;;;;2.08;1.60;;;;;;;12.89;59.84;97683.47;7386475;19;19911;-71
2023/03/23 01:04:05;;;;;;;2.78;1.42;;;;;;;12.73;59.52;97687.19;7387885;19;22380;-72
2023/03/23 01:06:38;;;;;;;2.30;2.10;;;;;;;12.83;59.85;97675.47;7381768;19;19973;-71
2023/03/23 01:09:16;;;;;;;2.55;1.15;;;;;;;12.85;60.32;97670.75;7384183;19;19951;-71
2023/03/23 01:11:44;;;;;;;1.48;1.17;;;;;;;12.84;60.07;97669.94;7388649;19;19923;-71
2023/03/23 01:14:12;;;;;;;1.70;1.52;;;;;;;12.83;59.71;97667.50;7383741;19;19967;-71
2023/03/23 01:16:40;;;;;;;2.28;1.88;;;;;;;12.84;59.48;97663.81;7388012;19;19935;-72
2023/03/23 01:19:07;;;;;;;1.10;0.90;;;;;;;12.90;58.45;97657.75;7384049;19;19918;-71
2023/03/23 01:21:35;;;;;;;2.45;1.45;;;;;;;12.93;57.97;97660.06;7387904;19;19922;-71
2023/03/23 01:24:02;;;;;;;2.35;1.58;;;;;;;13.01;57.29;97654.63;7386273;19;19922;-71
2023/03/23 01:26:29;;;;;;;1.60;1.08;;;;;;;13.00;56.55;97649.47;7382334;19;19914;-71
2023/03/23 01:28:56;;;;;;;3.47;1.45;;;;;;;13.10;56.82;97642.03;7384749;19;19914;-72
2023/03/23 01:31:26;;;;;;;1.10;1.00;;;;;;;13.13;56.71;97637.16;7383390;19;19934;-72
2023/03/23 01:33:54;;;;;;;1.35;1.23;;;;;;;13.12;56.79;97642.66;7383994;19;19918;-71
2023/03/23 01:36:26;;;;;;;2.05;1.77;;;;;;;13.18;56.81;97645.38;7381751;19;19914;-72
2023/03/23 01:38:54;;;;;;;2.13;1.10;;;;;;;13.19;55.33;97635.56;7384858;19;19918;-72
2023/03/23 01:41:21;;;;;;;1.55;1.35;;;;;;;13.26;55.94;97643.59;7383022;19;20408;-71
2023/03/23 01:44:29;;;;;;;1.58;1.48;;;;;;;13.28;55.47;97629.16;7384686;19;19922;-72
2023/03/23 01:47:07;;;;;;;1.17;0.77;;;;;;;13.36;55.96;97626.38;7384425;19;19938;-72
2023/03/23 01:49:38;;;;;;;3.50;1.42;;;;;;;13.33;56.35;97623.28;7387956;19;19921;-72
2023/03/23 01:52:08;;;;;;;1.48;1.38;;;;;;;13.33;55.56;97628.59;7382655;19;19915;-71
2023/03/23 01:54:38;;;;;;;1.52;1.08;;;;;;;13.32;56.15;97629.59;7386932;19;19918;-72
2023/03/23 01:57:07;;;;;;;1.48;1.38;;;;;;;13.28;56.10;97625.69;7382715;19;20340;-71
2023/03/23 01:59:35;;;;;;;1.40;0.98;;;;;;;13.31;55.70;97622.63;7383559;19;19918;-71
2023/03/23 02:02:15;;;;;;;1.70;1.20;;;;;;;13.25;56.58;97623.38;7381515;19;20576;-71
2023/03/23 02:04:44;;;;;;;1.63;1.13;;;;;;;13.11;55.26;97630.38;7387073;19;19930;-71
2023/03/23 02:07:12;;;;;;;2.67;2.00;;;;;;;13.03;55.25;97626.03;7381472;19;19922;-71
2023/03/23 02:09:39;;;;;;;1.52;1.40;;;;;;;13.11;56.03;97641.00;7386139;19;20407;-71
2023/03/23 02:12:06;;;;;;;2.47;2.17;;;;;;;13.09;56.18;97630.59;7384466;19;20418;-72
2023/03/23 02:14:34;;;;;;;1.45;1.15;;;;;;;13.13;56.79;97621.22;7381368;19;19923;-71
2023/03/23 02:17:09;;;;;;;2.28;2.03;;;;;;;13.10;57.23;97626.09;7384810;19;20355;-71
2023/03/23 02:19:42;;;;;;;2.03;1.02;;;;;;;13.06;57.76;97623.00;7386732;19;19942;-72
2023/03/23 02:22:35;;;;;;;2.50;1.63;;;;;;;13.05;58.34;97625.84;7391403;19;19918;-71
2023/03/23 02:25:29;;;;;;;1.85;1.75;;;;;;;12.96;58.75;97623.31;7387037;19;19915;-71
2023/03/23 02:28:02;;;;;;;2.15;1.50;;;;;;;12.91;58.29;97627.56;7387839;19;19939;-72
2023/03/23 02:30:37;;;;;;;3.30;1.85;;;;;;;12.87;59.03;97621.78;7386497;19;19926;-72
2023/03/23 02:33:38;;;;;;;2.20;1.60;;;;;;;12.83;59.04;97625.03;7386927;19;19933;-71
2023/03/23 02:36:37;;;;;;;2.05;1.58;;;;;;;12.83;58.37;97622.38;7388322;19;20546;-71
2023/03/23 02:39:24;;;;;;;1.73;1.48;;;;;;;12.88;57.06;97612.00;7390902;19;20363;-72
2023/03/23 02:41:58;;;;;;;1.77;1.67;;;;;;;12.98;56.84;97601.91;7391535;19;19933;-72
2023/03/23 02:44:29;;;;;;;2.55;1.95;;;;;;;13.02;56.52;97589.88;7388860;19;19929;-72
2023/03/23 02:46:57;;;;;;;3.13;1.42;;;;;;;13.14;56.09;97579.56;7390227;19;19922;-72
2023/03/23 02:49:25;;;;;;;1.95;1.83;;;;;;;13.18;56.31;97575.50;7385598;19;19918;-72
2023/03/23 02:51:53;;;;;;;1.95;1.20;;;;;;;13.22;56.22;97579.44;7386837;19;19915;-72
2023/03/23 02:54:22;;;;;;;2.75;2.08;;;;;;;13.26;55.94;97578.06;7385254;19;19923;-72
2023/03/23 02:56:50;;;;;;;2.60;1.65;;;;;;;13.25;56.19;97579.03;7388575;19;19922;-72
2023/03/23 02:59:22;;;;;;;1.58;0.95;;;;;;;13.22;57.25;97579.44;7384099;19;19925;-71
2023/03/23 03:01:53;;;;;;;1.92;1.77;;;;;;;13.10;57.80;97575.63;7390519;19;19982;-72
2023/03/23 03:04:22;;;;;;;1.88;1.63;;;;;;;13.03;57.64;97570.25;7384101;19;19911;-72
2023/03/23 03:07:07;;;;;;;2.25;2.08;;;;;;;13.01;57.07;97561.69;7386113;19;19934;-72
2023/03/23 03:09:45;;;;;;;2.92;1.30;;;;;;;13.14;56.92;97559.16;7387959;19;20298;-71
2023/03/23 03:12:27;;;;;;;2.13;1.65;;;;;;;13.15;57.07;97563.44;7389421;19;19914;-71
2023/03/23 03:15:08;;;;;;;2.53;1.38;;;;;;;13.13;57.52;97560.13;7388585;19;19919;-71
2023/03/23 03:17:40;;;;;;;1.42;1.33;;;;;;;13.17;56.55;97563.25;7389544;19;19914;-71
2023/03/23 03:20:10;;;;;;;1.65;1.42;;;;;;;13.18;56.91;97564.88;7392314;19;19934;-71
2023/03/23 03:22:41;;;;;;;3.10;1.30;;;;;;;13.23;56.70;97556.34;7385409;19;20362;-72
2023/03/23 03:25:12;;;;;;;2.00;1.65;;;;;;;13.21;57.37;97558.38;7386409;19;19919;-71
2023/03/23 03:27:49;;;;;;;1.50;1.33;;;;;;;13.17;57.41;97555.28;7389292;19;19918;-71
2023/03/23 03:30:23;;;;;;;1.35;1.25;;;;;;;13.21;55.74;97545.91;7388028;19;20392;-71
2023/03/23 03:32:53;;;;;;;1.23;1.13;;;;;;;13.37;55.19;97563.41;7387975;19;19925;-71
2023/03/23 03:35:22;;;;;;;1.65;1.20;;;;;;;13.58;54.64;97555.38;7386688;19;19918;-72
2023/03/23 03:37:50;;;;;;;1.25;1.15;;;;;;;13.73;54.81;97557.13;7389498;19;19927;-71
2023/03/23 03:40:19;;;;;;;3.20;1.70;;;;;;;13.75;54.69;97565.72;7385806;19;20272;-72
2023/03/23 03:42:46;;;;;;;1.42;0.90;;;;;;;13.65;54.57;97557.28;7388699;19;19922;-71
2023/03/23 03:45:18;;;;;;;1.45;1.35;;;;;;;13.78;54.50;97557.34;7388836;19;19937;-72
2023/03/23 03:47:45;;;;;;;1.60;1.10;;;;;;;13.86;54.56;97559.84;7390389;19;19974;-72
2023/03/23 03:50:16;;;;;;;1.30;1.17;;;;;;;13.86;54.61;97557.19;7383594;19;19917;-72
2023/03/23 03:52:43;;;;;;;1.77;1.23;;;;;;;13.83;55.05;97558.41;7388525;19;19943;-72
2023/03/23 03:55:10;;;;;;;2.55;1.55;;;;;;;13.79;54.14;97554.47;7385658;19;19926;-71
2023/03/23 03:57:41;;;;;;;1.80;1.70;;;;;;;13.77;54.66;97550.38;7388096;19;19986;-71
2023/03/23 04:00:15;;;;;;;1.45;0.80;;;;;;;13.68;55.03;97544.41;7387254;19;20312;-72
2023/03/23 04:02:50;;;;;;;2.63;1.48;;;;;;;13.66;55.13;97546.44;7388589;19;19918;-71
2023/03/23 04:05:24;;;;;;;2.70;1.73;;;;;;;13.61;54.79;97544.38;7385707;19;20665;-71
2023/03/23 04:07:51;;;;;;;2.15;1.85;;;;;;;13.55;55.38;97549.66;7392802;19;19922;-71
2023/03/23 04:10:34;;;;;;;1.75;1.63;;;;;;;13.47;55.38;97552.47;7387193;19;19914;-71
2023/03/23 04:13:04;;;;;;;2.75;1.45;;;;;;;13.35;55.74;97547.69;7385175;19;21016;-71
2023/03/23 04:15:49;;;;;;;1.88;1.48;;;;;;;13.34;55.67;97554.00;7384247;19;19921;-71
2023/03/23 04:18:33;;;;;;;2.42;2.22;;;;;;;13.43;56.06;97559.16;7385152;19;20023;-71
2023/03/23 04:21:02;;;;;;;1.67;1.30;;;;;;;13.37;56.44;97564.22;7383058;19;19915;-71
2023/03/23 04:23:33;;;;;;;1.70;1.55;;;;;;;13.37;57.82;97563.41;7384526;19;19930;-71
2023/03/23 04:26:03;;;;;;;1.50;1.30;;;;;;;13.25;56.93;97565.75;7384390;19;19947;-71
2023/03/23 04:28:38;;;;;;;1.45;1.30;;;;;;;13.30;57.93;97563.38;7385418;19;19948;-71
2023/03/23 04:31:37;;;;;;;2.30;1.88;;;;;;;13.27;57.60;97562.94;7383773;19;19931;-71
2023/03/23 04:34:25;;;;;;;2.85;1.40;;;;;;;13.16;58.18;97566.91;7389253;19;19987;-72
2023/03/23 04:36:53;;;;;;;1.70;1.40;;;;;;;13.11;58.97;97564.84;7388063;19;19917;-72
2023/03/23 04:39:28;;;;;;;2.13;1.38;;;;;;;13.23;58.76;97564.31;7383918;19;20352;-72
2023/03/23 04:42:00;;;;;;;3.10;1.58;;;;;;;13.31;58.89;97565.00;7386008;19;19918;-72
2023/03/23 04:44:53;;;;;;;3.72;1.90;;;;;;;13.17;58.78;97561.41;7390298;19;19926;-72
2023/03/23 04:47:29;;;;;;;2.60;2.40;;;;;;;13.15;58.12;97552.81;7387298;19;20562;-72
2023/03/23 04:49:58;;;;;;;2.80;1.15;;;;;;;13.22;58.24;97557.34;7384398;19;19922;-72
2023/03/23 04:52:37;;;;;;;2.20;1.30;;;;;;;13.26;57.19;97556.81;7385650;19;19959;-73
2023/03/23 04:55:07;;;;;;;2.38;1.55;;;;;;;13.29;57.25;97551.09;7384755;19;19993;-71
2023/03/23 04:57:35;;;;;;;1.60;1.50;;;;;;;13.33;57.80;97551.56;7384583;19;19919;-72
2023/03/23 05:00:25;;;;;;;1.85;1.38;;;;;;;13.36;58.12;97557.28;7384092;19;20607;-72
2023/03/23 05:02:56;;;;;;;1.70;1.55;;;;;;;13.29;59.11;97566.22;7389740;19;19994;-71
2023/03/23 05:05:27;;;;;;;1.55;1.25;;;;;;;13.15;59.68;97568.75;7382381;19;19925;-71
2023/03/23 05:07:55;;;;;;;1.67;1.17;;;;;;;13.21;59.82;97558.38;7385822;19;19919;-71
2023/03/23 05:10:27;;;;;;;2.25;1.80;;;;;;;13.17;60.42;97556.09;7384182;19;19918;-71
2023/03/23 05:12:59;;;;;;;1.88;1.48;;;;;;;13.09;60.45;97564.19;7385286;19;19918;-70
2023/03/23 05:15:26;;;;;;;1.50;1.02;;;;;;;13.06;59.76;97556.63;7381023;19;19923;-70
2023/03/23 05:17:55;;;;;;;1.83;1.42;;;;;;;13.06;60.04;97556.63;7386144;19;19983;-70
2023/03/23 05:20:24;;;;;;;1.92;1.48;;;;;;;13.06;60.43;97559.28;7384726;19;19911;-70
2023/03/23 05:23:02;;;;;;;1.35;1.25;;;;;;;13.02;60.53;97558.00;7385724;19;19925;-70
2023/03/23 05:25:36;;;;;;;2.20;2.03;;;;;;;13.07;60.24;97552.94;7384594;19;20796;-70
2023/03/23 05:28:08;;;;;;;1.77;1.67;;;;;;;13.09;60.17;97558.91;7384251;19;19929;-70
2023/03/23 05:30:53;;;;;;;3.50;1.60;;;;;;;13.14;59.98;97555.66;7390207;19;19924;-71
2023/03/23 05:33:20;;;;;;;2.80;1.45;;;;;;;13.05;60.11;97549.66;7383533;19;19990;-70
2023/03/23 05:35:51;;;;;;;1.48;1.35;;;;;;;13.10;59.52;97557.88;7381399;19;20358;-70
2023/03/23 05:38:24;;;;;;;3.40;1.13;;;;;;;13.13;59.91;97556.66;7381602;19;19923;-71
2023/03/23 05:40:52;;;;;;;2.00;1.70;;;;;;;13.11;60.01;97548.06;7378328;19;20322;-70
2023/03/23 05:43:26;;;;;;;2.85;1.70;;;;;;;13.02;59.93;97550.03;7380034;19;19918;-70
2023/03/23 05:46:06;;;;;;;2.92;1.23;;;;;;;13.05;60.68;97554.16;7383648;19;19929;-70
2023/03/23 05:48:34;;;;;;;2.15;1.83;;;;;;;13.08;60.58;97549.25;7380583;19;19918;-71
2023/03/23 05:51:02;;;;;;;1.52;1.05;;;;;;;13.03;60.84;97556.16;7382069;19;20252;-70
2023/03/23 05:53:31;;;;;;;2.75;1.42;;;;;;;13.07;61.20;97560.09;7380172;19;19922;-70
2023/03/23 05:56:00;;;;;;;1.77;1.48;;;;;;;13.04;61.36;97556.00;7389811;19;19926;-70
2023/03/23 05:58:45;;;;;;;1.75;1.05;;;;;;;13.06;60.36;97561.09;7397082;19;19930;-71
2023/03/23 06:01:14;;;;;;;2.25;1.48;;;;;;;13.10;59.55;97565.84;7394776;19;19918;-70
2023/03/23 06:03:44;;;;;;;2.17;1.20;;;;;;;13.20;59.97;97568.16;7395002;19;19918;-72
2023/03/23 06:06:21;;;;;;;1.90;1.77;;;;;;;13.23;57.91;97569.63;7385754;19;19915;-72
2023/03/23 06:08:58;;;;;;;2.22;1.75;;;;;;;13.39;57.55;97575.50;7397841;19;19942;-72
2023/03/23 06:11:38;;;;;;;2.63;1.52;;;;;;;13.45;57.09;97581.88;7397913;19;19935;-71
2023/03/23 06:14:26;;;;;;;2.92;1.63;;;;;;;13.58;58.32;97591.78;7394598;19;19926;-72
2023/03/23 06:16:52;;;;;;;3.13;1.70;;;;;;;13.54;58.28;97586.03;7397970;19;19926;-71
2023/03/23 06:19:20;;;;;;;3.28;2.55;;;;;;;13.56;57.38;97597.31;7399813;19;19914;-71
2023/03/23 06:21:57;;;;;;;2.78;1.70;;;;;;;13.57;58.61;97593.63;7394172;19;19922;-71
2023/03/23 06:24:50;;;;;;;2.20;1.83;;;;;;;13.57;59.19;97593.63;7394307;19;19929;-72
2023/03/23 06:27:23;;;;;;;2.13;1.33;;;;;;;13.57;57.93;97601.59;7388633;19;19911;-73
2023/03/23 06:29:50;;;;;;;1.95;1.50;;;;;;;13.58;58.32;97594.44;7390520;19;20019;-72
2023/03/23 06:32:19;;;;;;;3.92;1.48;;;;;;;13.55;57.72;97602.78;7388103;19;19911;-72
2023/03/23 06:34:47;;;;;;;3.50;1.85;;;;;;;13.58;58.95;97602.41;7390933;19;19918;-71
2023/03/23 06:37:33;;;;;;;2.92;1.90;;;;;;;13.56;60.01;97604.44;7393848;19;19921;-71
2023/03/23 06:40:06;;;;;;;2.72;1.55;;;;;;;13.53;60.23;97605.66;7393968;19;19960;-74
2023/03/23 06:42:38;;;;;;;4.35;2.22;;;;;;;13.51;60.78;97607.69;7391736;19;19927;-70
2023/03/23 06:45:33;;;;;;;3.60;2.28;;;;;;;13.49;59.68;97620.34;7394635;19;19930;-70
2023/03/23 06:48:32;;;;;;;5.50;2.05;;;;;;;13.50;61.25;97615.84;7397418;19;19917;-70
2023/03/23 06:50:59;;;;;;;3.95;2.28;;;;;;;13.38;63.92;97610.25;7398066;19;19915;-70
2023/03/23 06:53:28;;;;;;;2.95;2.50;;;;;;;13.30;64.75;97616.50;7395663;19;19918;-70
2023/03/23 06:55:56;;;;;;;2.45;2.00;;;;;;;13.32;65.04;97616.31;7398233;19;19918;-70
2023/03/23 06:58:24;;;;;;;3.60;2.10;;;;;;;13.37;67.14;97622.69;7396069;19;19926;-70
2023/03/23 07:00:56;;;;;;;3.70;2.08;;;;;;;13.37;65.60;97622.69;7396835;19;22421;-70
2023/03/23 07:03:28;;;;;;;2.85;2.30;;;;;;;13.52;63.32;97629.75;7395014;19;19919;-70
2023/03/23 07:05:55;;;;;;;2.88;2.05;;;;;;;13.68;62.39;97631.31;7388395;19;19925;-70
2023/03/23 07:08:26;;;;;;;;;;;;;;;13.79;62.21;97630.75;7385968;19;20270;-70
2023/03/23 07:10:54;;;;;;;6.68;3.70;;;;;;;13.90;62.73;97635.56;7392069;19;20688;-70
2023/03/23 07:13:27;;;;;;;3.78;2.47;;;;;;;13.95;61.55;97635.78;7385543;19;19907;-70
2023/03/23 07:15:58;;;;;;;2.60;1.88;;;;;;;13.99;60.79;97628.25;7389093;19;20381;-70
2023/03/23 07:18:25;;;;;;;3.35;2.00;;;;;;;13.99;61.65;97631.72;7385614;19;19931;-70
2023/03/23 07:20:53;;;;;;;2.22;1.77;;;;;;;14.02;61.46;97636.66;7388995;19;20339;-70
2023/03/23 07:23:24;;;;;;;2.72;1.70;;;;;;;13.98;61.36;97643.38;7384331;19;20010;-70
2023/03/23 07:25:58;;;;;;;2.00;1.80;;;;;;;14.00;60.86;97648.50;7388736;19;20640;-70
2023/03/23 07:28:31;;;;;;;3.60;2.10;;;;;;;13.99;60.43;97658.31;7385658;19;20273;-70
2023/03/23 07:31:07;;;;;;;3.45;1.95;;;;;;;14.00;60.29;97661.78;7391041;19;19925;-70
2023/03/23 07:33:35;;;;;;;2.72;1.50;;;;;;;13.95;60.40;97667.69;7386442;19;19919;-70
2023/03/23 07:36:03;;;;;;;2.33;1.70;;;;;;;13.99;61.58;97663.63;7387975;19;19935;-70
2023/03/23 07:38:30;;;;;;;2.58;1.30;;;;;;;13.94;60.31;97676.69;7385651;19;20336;-70
2023/03/23 07:40:58;;;;;;;2.78;1.98;;;;;;;13.96;59.39;97679.97;7389313;19;19926;-70
2023/03/23 07:43:26;;;;;;;2.70;1.85;;;;;;;14.05;59.80;97681.47;7386120;19;19925;-70
2023/03/23 07:45:58;;;;;;;3.08;2.03;;;;;;;14.03;57.97;97691.50;7390257;19;19917;-70
2023/03/23 07:48:37;;;;;;;1.90;1.38;;;;;;;14.22;61.11;97689.16;7386095;19;20286;-70
2023/03/23 07:51:06;;;;;;;4.00;1.58;;;;;;;14.23;61.06;97688.94;7387728;19;19937;-70
2023/03/23 07:53:34;;;;;;;3.72;1.40;;;;;;;14.35;58.60;97691.91;7385496;19;19927;-70
2023/03/23 07:56:14;;;;;;;3.42;1.33;;;;;;;14.44;55.10;97682.72;7380992;19;19926;-70
2023/03/23 07:58:47;;;;;;;2.42;1.65;;;;;;;14.78;54.77;97682.91;7386385;19;19922;-70
2023/03/23 08:01:14;;;;;;;2.00;1.77;;;;;;;15.17;54.40;97689.38;7388245;19;19930;-70
2023/03/23 08:03:46;;;;;;;3.00;1.45;;;;;;;15.41;53.11;97682.66;7383033;19;19942;-70
2023/03/23 08:06:33;;;;;;;2.15;1.13;;;;;;;15.63;52.73;97684.06;7381137;19;19918;-70
2023/03/23 08:09:13;;;;;;;2.70;1.10;;;;;;;15.67;51.45;97677.31;7389062;19;20344;-70
2023/03/23 08:11:57;;;;;;;1.67;1.30;;;;;;;15.62;52.28;97690.44;7389569;19;19919;-70
2023/03/23 08:14:57;;;;;;;1.85;1.45;;;;;;;15.44;52.30;97692.91;7387502;19;20311;-69
2023/03/23 08:17:44;;;;;;;2.88;1.85;;;;;;;15.52;52.61;97703.34;7385698;19;19919;-70
2023/03/23 08:20:31;;;;;;;2.25;1.35;;;;;;;15.76;52.29;97699.28;7385427;19;19925;-70
2023/03/23 08:23:24;;;;;;;4.85;1.65;;;;;;;15.87;52.43;97698.66;7388080;19;19956;-70
2023/03/23 08:26:11;;;;;;;3.60;1.42;;;;;;;15.96;52.71;97697.44;7385156;19;19952;-70
2023/03/23 08:28:58;;;;;;;2.30;1.75;;;;;;;15.88;51.66;97705.66;7387359;19;19910;-70
2023/03/23 08:31:35;;;;;;;3.85;1.63;;;;;;;15.91;51.05;97704.44;7384167;19;19907;-70
2023/03/23 08:34:07;;;;;;;1.80;1.67;;;;;;;15.68;52.02;97710.94;7387218;19;19918;-70
2023/03/23 08:37:00;;;;;;;3.00;1.85;;;;;;;15.79;52.42;97710.34;7387279;19;19929;-70
2023/03/23 08:39:53;;;;;;;2.00;1.55;;;;;;;15.63;52.71;97707.25;7387163;19;19922;-70
2023/03/23 08:42:26;;;;;;;1.40;1.30;;;;;;;15.57;52.13;97704.38;7389283;19;19911;-70
2023/03/23 08:45:22;;;;;;;3.53;1.75;;;;;;;15.43;52.28;97713.41;7385487;19;20251;-70
2023/03/23 08:48:10;;;;;;;3.10;1.60;;;;;;;15.33;52.88;97707.63;7389064;19;19975;-69
2023/03/23 08:50:49;;;;;;;2.33;1.48;;;;;;;15.53;53.39;97720.97;7384091;19;20336;-70
2023/03/23 08:53:31;;;;;;;2.03;1.38;;;;;;;15.65;53.56;97726.56;7384836;19;19996;-70
2023/03/23 08:56:16;;;;;;;2.25;1.33;;;;;;;15.53;53.86;97726.31;7387329;19;19921;-70
2023/03/23 08:58:47;;;;;;;6.75;1.90;;;;;;;15.48;53.62;97724.28;7385586;19;19919;-70
2023/03/23 09:01:46;;;;;;;;;;;;;;;15.58;53.96;97731.84;7386820;19;20003;-70
2023/03/23 09:04:20;;;;;;;;;;;;;;;15.52;55.18;97740.69;7385374;19;19921;-69
2023/03/23 09:07:07;;;;;;;2.13;1.70;;;;;;;15.44;54.53;97743.53;7384890;19;19914;-70
2023/03/23 09:09:34;;;;;;;4.63;1.92;;;;;;;15.33;54.75;97739.63;7385639;19;20330;-70
2023/03/23 09:12:00;;;;;;;2.78;2.08;;;;;;;15.42;55.18;97748.25;7387180;19;20510;-70
2023/03/23 09:14:27;;;;;;;3.70;2.50;;;;;;;15.33;55.34;97744.94;7385915;19;19919;-70
2023/03/23 09:16:54;;;;;;;4.97;2.05;;;;;;;15.54;55.13;97749.31;7388428;19;19924;-70
2023/03/23 09:19:21;;;;;;;2.55;2.05;;;;;;;15.65;55.37;97751.34;7388136;19;19935;-70
2023/03/23 09:21:50;;;;;;;3.85;2.00;;;;;;;15.73;54.55;97745.84;7380620;19;20350;-70
2023/03/23 09:24:18;;;;;;;5.63;2.55;;;;;;;16.01;54.29;97750.19;7387002;19;19955;-71
2023/03/23 09:26:45;;;;;;;5.82;1.95;;;;;;;16.18;54.02;97748.72;7384516;19;19929;-70
2023/03/23 09:29:13;;;;;;;1.70;1.30;;;;;;;16.24;53.71;97749.75;7385630;19;19926;-70
2023/03/23 09:31:41;;;;;;;2.47;2.15;;;;;;;15.91;54.74;97757.78;7386345;19;19939;-70
2023/03/23 09:34:09;;;;;;;3.38;1.42;;;;;;;16.03;56.12;97753.44;7389145;19;20560;-70
2023/03/23 09:36:38;;;;;;;2.20;2.00;;;;;;;16.31;54.55;97763.09;7382301;19;19933;-70
2023/03/23 09:39:11;;;;;;;2.90;2.63;;;;;;;16.23;53.49;97764.94;7387430;19;19986;-70
2023/03/23 09:42:01;;;;;;;2.53;1.60;;;;;;;16.15;54.21;97759.81;7384762;19;19914;-70
2023/03/23 09:45:11;;;;;;;1.70;1.23;;;;;;;16.23;53.60;97761.47;7387304;19;19919;-70
2023/03/23 09:47:48;;;;;;;1.60;1.50;;;;;;;16.39;53.58;97762.88;7382475;19;20336;-70
2023/03/23 09:50:18;;;;;;;1.65;1.55;;;;;;;16.23;53.24;97767.63;7384744;19;19940;-70
2023/03/23 09:52:48;;;;;;;3.95;1.40;;;;;;;16.39;53.27;97768.22;7380267;19;20328;-70
2023/03/23 09:55:16;;;;;;;3.05;1.38;;;;;;;16.60;53.54;97764.47;7381768;19;19939;-70
2023/03/23 09:58:15;;;;;;;2.13;0.95;;;;;;;16.49;52.99;97767.81;7382455;19;19918;-70
2023/03/23 10:00:47;;;;;;;2.25;1.45;;;;;;;16.54;53.47;97773.34;7385011;19;19939;-70
2023/03/23 10:03:17;;;;;;;1.75;1.65;;;;;;;16.58;54.01;97766.53;7385462;19;19933;-70
2023/03/23 10:05:47;;;;;;;;;;;;;;;16.58;52.79;97769.19;7385945;19;19933;-71
2023/03/23 10:08:19;;;;;;;3.85;1.00;;;;;;;16.57;52.82;97771.06;7387895;19;19919;-71
2023/03/23 10:11:04;;;;;;;1.55;1.00;;;;;;;16.54;53.21;97779.50;7381375;19;19919;-71
2023/03/23 10:13:48;;;;;;;1.40;0.93;;;;;;;16.48;53.51;97782.97;7379684;19;19914;-71
2023/03/23 10:16:20;;;;;;;1.38;0.90;;;;;;;16.53;52.96;97783.19;7383971;19;19918;-71
2023/03/23 10:19:17;;;;;;;2.17;1.98;;;;;;;16.45;52.94;97786.88;7383794;19;20487;-71
2023/03/23 10:21:49;;;;;;;1.63;1.25;;;;;;;16.52;52.68;97792.22;7385367;19;20355;-71
2023/03/23 10:24:17;;;;;;;2.30;1.40;;;;;;;16.66;52.36;97790.34;7385408;19;20244;-71
2023/03/23 10:27:11;;;;;;;2.67;1.02;;;;;;;16.75;51.99;97790.97;7381229;19;19953;-71
2023/03/23 10:29:43;;;;;;;2.30;0.70;;;;;;;16.64;53.58;97787.91;7379463;19;19950;-71
2023/03/23 10:32:14;;;;;;;1.40;1.00;;;;;;;16.70;53.09;97796.91;7380979;19;19923;-71
2023/03/23 10:34:46;;;;;;;1.10;0.98;;;;;;;16.98;53.29;97799.34;7381890;19;19923;-71
2023/03/23 10:37:30;;;;;;;1.88;1.20;;;;;;;16.78;51.41;97793.25;7385264;19;19932;-70
2023/03/23 10:39:59;;;;;;;1.20;0.93;;;;;;;17.12;52.14;97786.75;7386107;19;19942;-71
2023/03/23 10:42:28;;;;;;;2.70;1.10;;;;;;;17.18;51.63;97790.44;7391358;19;19915;-71
2023/03/23 10:44:56;;;;;;;1.45;0.95;;;;;;;17.62;51.77;97784.22;7388304;19;19949;-71
2023/03/23 10:47:24;;;;;;;2.75;1.45;;;;;;;17.48;51.13;97788.00;7390059;19;19942;-71
2023/03/23 10:49:59;;;;;;;1.98;1.27;;;;;;;17.17;52.04;97800.31;7390744;19;19927;-70
2023/03/23 10:52:35;;;;;;;1.20;1.02;;;;;;;16.93;52.83;97800.97;7389114;19;19959;-72
2023/03/23 10:55:14;;;;;;;1.60;1.42;;;;;;;16.62;53.11;97803.31;7393874;19;19917;-71
2023/03/23 10:57:46;;;;;;;4.15;1.40;;;;;;;16.42;54.40;97802.50;7392872;19;20246;-71
2023/03/23 11:00:26;;;;;;;3.45;2.17;;;;;;;16.58;54.57;97804.72;7390620;19;20631;-71
2023/03/23 11:03:02;;;;;;;1.30;1.17;;;;;;;16.91;54.10;97798.53;7383885;19;19946;-71
2023/03/23 11:05:42;;;;;;;1.90;1.40;;;;;;;17.08;53.27;97788.19;7391988;19;19925;-71
2023/03/23 11:08:15;;;;;;;3.50;1.13;;;;;;;17.13;53.06;97787.56;7392582;19;20360;-71
2023/03/23 11:10:53;;;;;;;2.72;1.48;;;;;;;17.11;53.15;97780.59;7387799;19;19922;-71
2023/03/23 11:13:22;;;;;;;1.70;1.42;;;;;;;16.77;53.87;97787.09;7391263;19;19922;-71
2023/03/23 11:15:50;;;;;;;1.90;1.00;;;;;;;16.37;55.11;97786.28;7388931;19;19915;-70
2023/03/23 11:18:21;;;;;;;1.70;0.95;;;;;;;16.22;55.65;97783.84;7389059;19;19915;-70
2023/03/23 11:20:53;;;;;;;1.52;1.42;;;;;;;16.33;55.92;97785.06;7385812;19;19942;-69
2023/03/23 11:23:22;;;;;;;2.45;1.30;;;;;;;16.57;55.31;97786.25;7389395;19;19922;-69
2023/03/23 11:25:58;;;;;;;1.50;1.02;;;;;;;16.78;55.49;97782.56;7387014;19;19946;-70
2023/03/23 11:28:32;;;;;;;1.27;1.05;;;;;;;16.47;55.89;97792.03;7390111;19;19926;-71
2023/03/23 11:31:01;;;;;;;2.10;1.00;;;;;;;16.46;57.24;97798.41;7389163;19;19939;-71
2023/03/23 11:33:30;;;;;;;1.83;1.30;;;;;;;16.28;57.39;97792.88;7391365;19;19914;-70
2023/03/23 11:35:58;;;;;;;1.77;1.33;;;;;;;16.26;58.27;97787.72;7380977;19;19914;-71
2023/03/23 11:38:27;;;;;;;1.45;1.13;;;;;;;16.52;60.03;97786.06;7387878;19;19928;-69
2023/03/23 11:40:54;;;;;;;2.20;2.00;;;;;;;16.54;60.96;97790.16;7385139;19;19915;-69
2023/03/23 11:43:24;;;;;;;1.52;1.10;;;;;;;16.24;62.31;97779.09;7388294;19;20253;-69
2023/03/23 11:46:15;;;;;;;2.00;1.52;;;;;;;16.29;61.67;97773.16;7386403;19;19915;-71
2023/03/23 11:49:00;;;;;;;1.88;1.48;;;;;;;16.35;61.24;97769.66;7385701;19;19931;-70
2023/03/23 11:51:38;;;;;;;1.95;1.85;;;;;;;16.40;59.20;97767.19;7383306;19;20453;-70
2023/03/23 11:54:13;;;;;;;3.33;1.75;;;;;;;16.54;58.36;97770.66;7385701;19;19950;-69
2023/03/23 11:56:42;;;;;;;1.52;1.35;;;;;;;16.77;58.03;97772.84;7386304;19;19927;-69
2023/03/23 11:59:29;;;;;;;1.70;1.50;;;;;;;16.76;56.82;97765.88;7391506;19;19930;-69
2023/03/23 12:02:21;;;;;;;1.10;1.00;;;;;;;17.03;55.89;97762.09;7389422;19;19922;-70
2023/03/23 12:05:28;;;;;;;1.20;1.08;;;;;;;17.10;54.90;97762.09;7388749;19;19930;-70
2023/03/23 12:08:26;;;;;;;2.20;1.17;;;;;;;17.24;55.17;97763.66;7385608;19;19922;-70